Mairipotaba, Brazil
Current Conditions -  °F | °C
As of 7:00 PM on Friday 19 Dec 2014 (Local Time) from SBGO Reporting Station
Broken Clouds Broken Clouds  
Wind Chill: 81°   Ceiling: 10000
Heat Index: 82°   Visibility: 6mi
Dew Point: 63°   Wind: 3mph
Humidity: 54%   Direction: 10°N
Pressure: 29.85"   Gusts: NA
Location:  17.3°S, 49.47°W
Report Text: SBGO 192100Z 01003KT 9999 FEW035 BKN100 27/17 Q1011
Loading
Personal Weather Stations






























Interactive Weather Map New forecast layout! Learn more

10-Day Weather Forecast

Advertisements
Track Severe Weather on mobile